createdAt,value
2023-01-15T00:02:29.067Z,88.09
2023-01-15T00:05:43.513Z,88.50
2023-01-15T00:08:56.790Z,85.92
2023-01-15T00:12:09.782Z,84.17
2023-01-15T00:15:21.962Z,85.23
2023-01-15T00:18:34.386Z,83.48
2023-01-15T00:21:46.480Z,82.99
2023-01-15T00:25:13.225Z,82.59
2023-01-15T00:28:25.397Z,82.48
2023-01-15T00:31:41.263Z,82.53
2023-01-15T00:34:53.932Z,81.45
2023-01-15T00:38:06.118Z,81.55
2023-01-15T00:41:18.581Z,81.12
2023-01-15T00:44:33.291Z,80.74
2023-01-15T00:47:48.207Z,80.88
2023-01-15T00:51:00.298Z,80.10
2023-01-15T00:54:14.790Z,79.51
2023-01-15T00:57:26.887Z,78.67
2023-01-15T01:00:39.334Z,79.40
2023-01-15T01:03:53.115Z,78.13
2023-01-15T01:07:07.493Z,77.86
2023-01-15T01:10:19.689Z,76.33
2023-01-15T01:13:31.739Z,75.95
2023-01-15T01:16:46.037Z,74.74
2023-01-15T01:19:59.182Z,74.02
2023-01-15T01:23:13.324Z,73.69
2023-01-15T01:26:25.886Z,73.07
2023-01-15T01:29:37.899Z,73.32
2023-01-15T01:32:51.720Z,72.64
2023-01-15T01:36:03.790Z,73.01
2023-01-15T01:39:20.803Z,72.73
2023-01-15T01:42:33.452Z,72.58
2023-01-15T01:45:45.667Z,72.51
2023-01-15T01:49:02.138Z,71.63
2023-01-15T01:52:18.339Z,72.21
2023-01-15T01:55:34.342Z,72.49
2023-01-15T01:58:47.581Z,71.89
2023-01-15T02:02:00.518Z,72.33
2023-01-15T02:05:19.446Z,72.16
2023-01-15T02:08:33.498Z,71.77
2023-01-15T02:11:46.132Z,72.80
2023-01-15T02:15:05.706Z,71.96
2023-01-15T02:18:26.563Z,71.82
2023-01-15T02:21:50.080Z,71.41
2023-01-15T02:25:10.914Z,71.38
2023-01-15T02:28:28.346Z,71.89
2023-01-15T02:31:46.047Z,71.60
2023-01-15T02:35:03.998Z,71.24
2023-01-15T02:38:21.730Z,71.21
2023-01-15T02:41:40.908Z,71.12
2023-01-15T02:44:57.599Z,71.16
2023-01-15T02:48:15.306Z,70.87
2023-01-15T02:51:34.726Z,70.50
2023-01-15T02:54:53.256Z,70.52
2023-01-15T02:58:11.832Z,70.42
2023-01-15T03:01:28.817Z,70.95
2023-01-15T03:04:46.617Z,70.64
2023-01-15T03:08:02.386Z,70.80
2023-01-15T03:11:19.203Z,71.40
2023-01-15T03:14:38.542Z,71.65
2023-01-15T03:17:57.202Z,71.87
2023-01-15T03:21:14.661Z,72.30
2023-01-15T03:24:43.838Z,72.00
2023-01-15T03:27:59.770Z,71.76
2023-01-15T03:31:13.193Z,72.02
2023-01-15T03:34:25.564Z,72.28
2023-01-15T03:37:38.165Z,72.09
2023-01-15T03:40:57.833Z,72.47
2023-01-15T03:44:18.239Z,72.43
2023-01-15T03:47:47.277Z,72.17
2023-01-15T03:51:06.474Z,71.98
2023-01-15T04:00:28.288Z,71.58
2023-01-15T04:03:43.208Z,72.10
2023-01-15T04:15:57.072Z,71.85
2023-01-15T04:19:10.329Z,72.03
2023-01-15T04:22:24.284Z,71.51
2023-01-15T04:25:36.370Z,71.63
2023-01-15T04:28:49.230Z,72.61
2023-01-15T04:32:01.747Z,71.96
2023-01-15T04:35:15.188Z,71.26
2023-01-15T04:38:27.169Z,71.83
2023-01-15T04:41:53.870Z,72.60
2023-01-15T04:45:06.203Z,72.25
2023-01-15T04:48:18.924Z,72.51
2023-01-15T04:51:30.948Z,71.85
2023-01-15T04:54:43.067Z,71.99
2023-01-15T04:57:57.060Z,71.90
2023-01-15T05:01:11.335Z,71.40
2023-01-15T05:04:23.760Z,71.01
2023-01-15T05:07:35.772Z,71.35
2023-01-15T05:10:48.073Z,71.74
2023-01-15T05:14:00.173Z,71.54
2023-01-15T05:17:14.043Z,72.04
2023-01-15T05:20:26.542Z,71.60
2023-01-15T05:23:38.761Z,72.40
2023-01-15T05:26:51.735Z,71.90
2023-01-15T05:30:03.780Z,71.73
2023-01-15T05:33:15.783Z,71.80
2023-01-15T05:36:30.723Z,71.60
2023-01-15T05:39:43.548Z,71.56
2023-01-15T05:42:55.580Z,71.65
2023-01-15T05:46:10.873Z,71.38
2023-01-15T05:49:26.539Z,71.13
2023-01-15T05:52:38.506Z,70.98
2023-01-15T05:55:50.536Z,70.49
2023-01-15T05:59:02.724Z,70.63
2023-01-15T06:02:14.958Z,70.53
2023-01-15T06:05:27.029Z,69.28
2023-01-15T06:08:39.460Z,69.29
2023-01-15T06:14:51.948Z,68.64
2023-01-15T06:49:09.112Z,68.07
2023-01-15T06:52:21.578Z,67.71
2023-01-15T06:55:33.990Z,67.88
2023-01-15T06:58:46.924Z,67.03
2023-01-15T07:01:59.421Z,67.28
2023-01-15T07:05:13.325Z,67.49
2023-01-15T07:08:26.170Z,67.50
2023-01-15T07:11:41.383Z,67.21
2023-01-15T07:14:53.948Z,67.16
2023-01-15T07:18:06.325Z,67.41
2023-01-15T07:21:18.759Z,67.04
2023-01-15T07:24:31.062Z,67.34
2023-01-15T07:27:43.493Z,67.44
2023-01-15T07:30:55.978Z,66.89
2023-01-15T07:34:08.409Z,67.04
2023-01-15T07:37:20.758Z,66.51
2023-01-15T07:40:33.151Z,66.13
2023-01-15T07:43:59.819Z,66.29
2023-01-15T07:47:35.828Z,65.87
2023-01-15T07:50:48.329Z,66.06
2023-01-15T07:54:00.602Z,65.96
2023-01-15T07:57:14.538Z,65.77
2023-01-15T08:00:31.176Z,66.47
2023-01-15T08:03:44.114Z,65.25
2023-01-15T08:06:56.605Z,65.32
2023-01-15T08:10:09.494Z,65.13
2023-01-15T08:13:35.946Z,64.81
2023-01-15T08:16:48.570Z,64.13
2023-01-15T08:20:00.954Z,64.23
2023-01-15T08:23:13.979Z,64.39
2023-01-15T08:26:26.342Z,62.93
2023-01-15T08:29:39.322Z,62.48
2023-01-15T08:32:51.653Z,61.93
2023-01-15T08:36:05.339Z,61.67
2023-01-15T08:39:17.801Z,61.27
2023-01-15T08:42:30.394Z,61.30
2023-01-15T08:51:42.662Z,60.26
2023-01-15T08:54:54.710Z,60.47
2023-01-15T08:58:07.027Z,59.91
2023-01-15T09:01:20.118Z,60.15
2023-01-15T09:04:32.786Z,59.84
2023-01-15T09:07:45.192Z,59.34
2023-01-15T09:10:59.459Z,58.93
2023-01-15T09:14:59.802Z,59.32
2023-01-15T09:17:26.587Z,58.96
2023-01-15T09:20:39.348Z,59.02
2023-01-15T09:23:51.439Z,59.25
2023-01-15T09:27:03.792Z,59.25
2023-01-15T09:30:21.987Z,57.99
2023-01-15T09:33:34.484Z,58.87
2023-01-15T09:36:47.408Z,58.19
2023-01-15T09:39:59.557Z,57.61
2023-01-15T09:43:19.986Z,57.99
2023-01-15T09:46:38.698Z,57.85
2023-01-15T09:50:07.544Z,56.96
2023-01-15T09:53:44.203Z,56.68
2023-01-15T09:57:00.158Z,57.31
2023-01-15T10:00:24.239Z,56.67
2023-01-15T10:03:47.490Z,56.31
2023-01-15T10:07:05.064Z,55.57
2023-01-15T10:10:30.411Z,54.31
2023-01-15T10:13:50.083Z,55.62
2023-01-15T10:17:02.499Z,55.64
2023-01-15T10:20:22.242Z,54.94
2023-01-15T10:23:49.261Z,54.24
2023-01-15T10:27:06.713Z,54.69
2023-01-15T10:30:29.269Z,54.30
2023-01-15T10:33:54.538Z,54.45
2023-01-15T10:37:13.165Z,55.08
2023-01-15T10:40:44.184Z,55.25
2023-01-15T10:44:02.194Z,56.02
2023-01-15T10:47:21.049Z,55.17
2023-01-15T10:50:34.407Z,55.68
2023-01-15T10:53:51.542Z,54.98
2023-01-15T10:57:10.879Z,55.62
2023-01-15T11:00:25.327Z,55.47
2023-01-15T11:03:44.065Z,54.76
2023-01-15T11:06:56.348Z,55.27
2023-01-15T11:10:14.406Z,55.89
2023-01-15T11:13:45.135Z,55.71
2023-01-15T11:17:13.894Z,55.55
2023-01-15T11:20:34.676Z,55.13
2023-01-15T11:23:51.006Z,55.58
2023-01-15T11:27:04.561Z,55.90
2023-01-15T11:30:37.474Z,56.59
2023-01-15T11:34:02.028Z,56.56
2023-01-15T11:37:16.196Z,57.70
2023-01-15T11:40:30.950Z,58.35
2023-01-15T11:43:57.880Z,58.49
2023-01-15T11:47:30.662Z,58.75
2023-01-15T11:50:49.062Z,59.18
2023-01-15T11:54:06.284Z,60.37
2023-01-15T11:57:28.893Z,61.28
2023-01-15T12:00:47.140Z,62.41
2023-01-15T12:04:00.149Z,64.68
2023-01-15T12:07:19.251Z,67.09
2023-01-15T12:10:49.459Z,68.77
2023-01-15T12:14:12.730Z,73.30
2023-01-15T12:17:53.614Z,75.47
2023-01-15T12:21:18.599Z,77.80
2023-01-15T12:25:18.164Z,79.68
2023-01-15T12:28:34.437Z,82.29
2023-01-15T12:31:51.943Z,83.06
2023-01-15T12:35:08.936Z,83.96
2023-01-15T12:38:22.841Z,85.43
2023-01-15T12:41:54.194Z,86.61
2023-01-15T12:45:10.909Z,87.75
2023-01-15T12:48:29.409Z,86.50
2023-01-15T12:51:49.600Z,86.64
2023-01-15T12:55:08.521Z,88.29
2023-01-15T12:58:31.509Z,87.87
2023-01-15T13:01:49.996Z,87.13
2023-01-15T13:05:11.181Z,87.59
2023-01-15T13:08:29.272Z,87.69
2023-01-15T13:11:41.448Z,88.42
2023-01-15T13:14:54.482Z,88.08
2023-01-15T13:18:14.908Z,87.85
2023-01-15T13:21:28.279Z,87.24
2023-01-15T13:25:20.513Z,87.39
2023-01-15T13:28:47.378Z,87.87
2023-01-15T13:32:07.194Z,86.29
2023-01-15T13:35:27.353Z,85.64
2023-01-15T13:38:46.703Z,85.28
2023-01-15T13:42:15.206Z,84.11
2023-01-15T13:45:42.775Z,84.61
2023-01-15T13:48:58.147Z,83.42
2023-01-15T13:52:13.131Z,82.60
2023-01-15T13:55:34.172Z,82.37
2023-01-15T13:58:58.090Z,81.15
2023-01-15T14:02:22.926Z,80.17
2023-01-15T14:05:41.263Z,79.83
2023-01-15T14:08:55.530Z,80.18
2023-01-15T14:12:18.588Z,79.65
2023-01-15T14:15:42.639Z,79.69
2023-01-15T14:19:29.476Z,79.54
2023-01-15T14:22:58.585Z,78.97
2023-01-15T14:26:20.687Z,78.38
2023-01-15T14:30:06.521Z,79.29
2023-01-15T14:33:29.076Z,78.83
2023-01-15T14:36:49.262Z,78.89
2023-01-15T14:40:03.781Z,79.36
2023-01-15T14:43:25.648Z,80.31
2023-01-15T14:46:42.264Z,80.57
2023-01-15T14:50:06.445Z,81.73
2023-01-15T14:53:47.140Z,82.19
2023-01-15T14:57:02.870Z,82.69
2023-01-15T15:00:23.108Z,83.35
2023-01-15T15:03:41.451Z,83.14
2023-01-15T15:06:58.582Z,83.38
2023-01-15T15:10:17.267Z,84.02
2023-01-15T15:13:37.043Z,83.75
2023-01-15T15:16:54.898Z,83.45
2023-01-15T15:20:24.497Z,83.72
2023-01-15T15:23:44.522Z,83.82
2023-01-15T15:26:56.878Z,84.12
2023-01-15T15:30:21.113Z,84.32
2023-01-15T15:33:39.348Z,84.68
2023-01-15T15:36:53.411Z,84.93
2023-01-15T15:40:09.764Z,84.55
2023-01-15T15:43:41.661Z,84.53
2023-01-15T15:47:12.651Z,84.80
2023-01-15T15:50:31.560Z,84.75
2023-01-15T15:53:43.787Z,84.90
2023-01-15T15:57:09.065Z,84.77
2023-01-15T16:00:27.876Z,84.44
2023-01-15T16:03:41.044Z,84.73
2023-01-15T16:06:53.483Z,84.47
2023-01-15T16:10:11.830Z,84.42
2023-01-15T16:13:31.672Z,84.96
2023-01-15T16:16:44.581Z,84.73
2023-01-15T16:19:57.136Z,84.91
2023-01-15T16:23:22.970Z,84.54
2023-01-15T16:26:42.190Z,85.04
2023-01-15T16:29:58.857Z,85.35
2023-01-15T16:33:14.219Z,84.59
2023-01-15T16:36:26.581Z,85.15
2023-01-15T16:39:43.460Z,85.44
2023-01-15T16:43:03.743Z,85.81
2023-01-15T16:46:23.527Z,86.58
2023-01-15T16:49:38.096Z,86.82
2023-01-15T16:53:02.084Z,87.95
2023-01-15T16:56:37.383Z,89.47
2023-01-15T17:00:15.202Z,90.51
2023-01-15T17:03:30.107Z,91.22
2023-01-15T17:06:42.216Z,92.85
2023-01-15T17:09:57.584Z,95.17
2023-01-15T17:13:09.923Z,96.25
2023-01-15T17:16:27.481Z,98.17
2023-01-15T17:19:39.710Z,100.00
2023-01-15T17:22:54.537Z,100.00
2023-01-15T17:26:07.956Z,100.00
2023-01-15T17:29:21.085Z,100.00
2023-01-15T17:32:40.501Z,100.00
2023-01-15T17:35:53.953Z,100.00
2023-01-15T17:39:06.254Z,100.00
2023-01-15T17:42:23.330Z,100.00
2023-01-15T17:45:35.237Z,100.00
2023-01-15T17:48:47.743Z,100.00
2023-01-15T17:51:59.924Z,100.00
2023-01-15T17:55:28.715Z,100.00
2023-01-15T17:58:55.303Z,100.00
2023-01-15T18:02:22.882Z,100.00
2023-01-15T18:05:37.042Z,100.00
2023-01-15T18:08:53.706Z,100.00
2023-01-15T18:12:05.899Z,100.00
2023-01-15T18:15:19.948Z,100.00
2023-01-15T18:18:32.109Z,100.00
2023-01-15T18:21:47.136Z,100.00
2023-01-15T18:24:59.248Z,100.00
2023-01-15T18:28:15.018Z,100.00
2023-01-15T18:31:27.676Z,100.00
2023-01-15T18:37:44.894Z,100.00
2023-01-15T18:47:01.061Z,100.00
2023-01-15T19:47:04.591Z,100.00
2023-01-15T19:50:24.722Z,100.00
2023-01-15T19:53:37.422Z,100.00
2023-01-15T19:56:49.572Z,100.00
2023-01-15T20:00:01.863Z,100.00
2023-01-15T20:03:16.079Z,100.00
2023-01-15T20:06:28.319Z,100.00
2023-01-15T20:09:40.877Z,100.00
2023-01-15T20:13:07.883Z,100.00
2023-01-15T20:16:25.449Z,100.00
2023-01-15T20:19:38.353Z,100.00
2023-01-15T20:22:51.061Z,100.00
2023-01-15T20:26:10.431Z,100.00
2023-01-15T20:29:22.425Z,100.00
2023-01-15T20:32:34.538Z,100.00
2023-01-15T20:35:47.007Z,100.00
2023-01-15T20:38:59.153Z,100.00
2023-01-15T20:42:26.339Z,100.00
2023-01-15T20:45:38.879Z,100.00
2023-01-15T20:49:06.169Z,100.00
2023-01-15T20:52:18.710Z,100.00
2023-01-15T20:55:45.702Z,100.00
2023-01-15T20:58:51.619Z,100.00
2023-01-15T21:02:04.060Z,100.00
2023-01-15T21:05:20.427Z,100.00
2023-01-15T21:08:33.773Z,100.00
2023-01-15T21:11:46.108Z,100.00
2023-01-15T21:14:58.283Z,100.00
2023-01-15T21:18:10.626Z,100.00
2023-01-15T21:21:24.929Z,100.00
2023-01-15T21:24:37.703Z,100.00
2023-01-15T21:27:49.862Z,100.00
2023-01-15T21:31:04.230Z,100.00
2023-01-15T21:34:17.236Z,100.00
2023-01-15T21:37:30.376Z,100.00
2023-01-15T21:40:44.442Z,100.00
2023-01-15T21:44:11.170Z,100.00
2023-01-15T21:47:26.742Z,100.00
2023-01-15T21:50:40.398Z,100.00
2023-01-15T21:53:52.764Z,100.00
2023-01-15T21:57:06.137Z,100.00
2023-01-15T22:00:21.337Z,100.00
2023-01-15T22:03:33.473Z,100.00
2023-01-15T22:06:45.593Z,100.00
2023-01-15T22:09:57.886Z,100.00
2023-01-15T22:13:10.138Z,100.00
2023-01-15T22:16:23.906Z,100.00
2023-01-15T22:19:37.913Z,100.00
2023-01-15T22:22:50.146Z,100.00
2023-01-15T22:26:07.806Z,100.00
2023-01-15T22:29:21.481Z,100.00
2023-01-15T22:32:33.628Z,100.00
2023-01-15T22:35:45.917Z,100.00
2023-01-15T22:38:59.125Z,100.00
2023-01-15T22:42:30.932Z,100.00
2023-01-15T22:45:42.980Z,100.00
2023-01-15T22:48:55.381Z,100.00
2023-01-15T22:52:08.777Z,100.00
2023-01-15T22:55:20.936Z,100.00
2023-01-15T22:58:33.910Z,100.00
2023-01-15T23:01:46.669Z,100.00
2023-01-15T23:04:58.825Z,100.00
2023-01-15T23:08:11.473Z,100.00
2023-01-15T23:11:23.817Z,100.00
2023-01-15T23:14:35.823Z,100.00
2023-01-15T23:17:48.990Z,100.00
2023-01-15T23:21:01.104Z,100.00
2023-01-15T23:24:14.853Z,100.00
2023-01-15T23:27:26.839Z,100.00
2023-01-15T23:30:39.451Z,100.00
2023-01-15T23:33:51.971Z,100.00
2023-01-15T23:37:04.178Z,100.00
2023-01-15T23:40:18.838Z,100.00
2023-01-15T23:43:45.888Z,100.00
2023-01-15T23:46:58.163Z,100.00
2023-01-15T23:50:11.749Z,100.00
2023-01-15T23:53:23.966Z,100.00
2023-01-15T23:56:37.383Z,100.00
2023-01-15T23:59:49.437Z,100.00
